Oviedo en Asturias

latitud = 43° 21' 16''N | longitud = 005° 52' 22''W
231 metros sobre el nivel del mar | datos mensuales

Fecha, hora, temperatura, viento dirección y velocidad, humedad y presión.

  • 22-11-2017 09:00:00 | 15.30°C | Sudoeste |5.00 km/h | 36.00% | 969.70 hPa
  • 22-11-2017 08:00:00 | 14.80°C | Sudeste |8.00 km/h | 36.00% | 969.90 hPa
  • 22-11-2017 07:00:00 | 14.50°C | Sudeste |11.00 km/h | 38.00% | 970.10 hPa
  • 22-11-2017 06:00:00 | 14.20°C | Sudeste |10.00 km/h | 40.00% | 970.40 hPa
  • 22-11-2017 05:00:00 | 14.20°C | Este |5.00 km/h | 38.00% | 970.90 hPa
  • 22-11-2017 04:00:00 | 13.30°C | Sudeste |9.00 km/h | 42.00% | 971.60 hPa
  • 22-11-2017 03:00:00 | 13.90°C | Sudeste |8.00 km/h | 39.00% | 972.40 hPa
  • 22-11-2017 02:00:00 | 13.50°C | Sudeste |8.00 km/h | 36.00% | 973.40 hPa
  • 22-11-2017 01:00:00 | 13.10°C | Este |4.00 km/h | 36.00% | 974.20 hPa
  • 22-11-2017 00:00:00 | 12.40°C | Sur |7.00 km/h | 41.00% | 974.90 hPa
  • 21-11-2017 23:00:00 | 12.10°C | Sur |4.00 km/h | 41.00% | 975.40 hPa
  • 21-11-2017 22:00:00 | 11.00°C | Sur |5.00 km/h | 57.00% | 976.00 hPa
  • 21-11-2017 21:00:00 | 11.50°C | Sur |6.00 km/h | 62.00% | 976.10 hPa
  • 21-11-2017 20:00:00 | 12.50°C | Sudoeste |4.00 km/h | 59.00% | 976.40 hPa
  • 21-11-2017 19:00:00 | 14.90°C | Oeste |4.00 km/h | 59.00% | 976.70 hPa
  • 21-11-2017 18:00:00 | 15.80°C | Noroeste |6.00 km/h | 56.00% | 976.90 hPa
  • 21-11-2017 17:00:00 | 17.60°C | Nordeste |4.00 km/h | 42.00% | 977.10 hPa
  • 21-11-2017 16:00:00 | 18.40°C | Este |6.00 km/h | 48.00% | 977.10 hPa
  • 21-11-2017 15:00:00 | 18.70°C | Este |3.00 km/h | 44.00% | 977.70 hPa
  • 21-11-2017 14:00:00 | 17.70°C | Sur |3.00 km/h | 41.00% | 978.60 hPa
  • 21-11-2017 13:00:00 | 17.50°C | Sur |5.00 km/h | 41.00% | 979.30 hPa
  • 21-11-2017 12:00:00 | 14.70°C | Sur |8.00 km/h | 49.00% | 980.30 hPa
  • 21-11-2017 11:00:00 | 12.10°C | Sur |7.00 km/h | 53.00% | 980.60 hPa
  • 21-11-2017 10:00:00 | 8.20°C | Sur |9.00 km/h | 68.00% | 980.80 hPa